sensor_id;sensor_type;location;lat;lon;timestamp;temperature;humidity
11666;DHT22;5889;51.350;6.708;2023-06-24T00:00:41;20.60;99.90
11666;DHT22;5889;51.350;6.708;2023-06-24T00:03:08;20.60;99.90
11666;DHT22;5889;51.350;6.708;2023-06-24T00:05:36;20.60;99.90
11666;DHT22;5889;51.350;6.708;2023-06-24T00:08:04;20.60;99.90
11666;DHT22;5889;51.350;6.708;2023-06-24T00:10:32;20.60;99.90
11666;DHT22;5889;51.350;6.708;2023-06-24T00:12:59;20.70;99.90
11666;DHT22;5889;51.350;6.708;2023-06-24T00:15:27;20.60;99.90
11666;DHT22;5889;51.350;6.708;2023-06-24T00:17:54;20.60;99.90
11666;DHT22;5889;51.350;6.708;2023-06-24T00:20:31;20.50;99.90
11666;DHT22;5889;51.350;6.708;2023-06-24T00:22:59;20.40;99.90
11666;DHT22;5889;51.350;6.708;2023-06-24T00:25:26;20.30;99.90
11666;DHT22;5889;51.350;6.708;2023-06-24T00:27:53;20.30;99.90
11666;DHT22;5889;51.350;6.708;2023-06-24T00:30:20;20.20;99.90
11666;DHT22;5889;51.350;6.708;2023-06-24T00:32:47;20.20;99.90
11666;DHT22;5889;51.350;6.708;2023-06-24T00:35:14;20.20;99.90
11666;DHT22;5889;51.350;6.708;2023-06-24T00:37:41;20.20;99.90
11666;DHT22;5889;51.350;6.708;2023-06-24T00:40:10;20.10;99.90
11666;DHT22;5889;51.350;6.708;2023-06-24T00:42:40;20.10;99.90
11666;DHT22;5889;51.350;6.708;2023-06-24T00:45:08;20.10;99.90
11666;DHT22;5889;51.350;6.708;2023-06-24T00:47:36;20.00;99.90
11666;DHT22;5889;51.350;6.708;2023-06-24T00:50:05;20.00;99.90
11666;DHT22;5889;51.350;6.708;2023-06-24T00:52:32;19.90;99.90
11666;DHT22;5889;51.350;6.708;2023-06-24T00:55:02;19.90;99.90
11666;DHT22;5889;51.350;6.708;2023-06-24T00:57:31;19.90;99.90
11666;DHT22;5889;51.350;6.708;2023-06-24T00:59:59;19.90;99.90
11666;DHT22;5889;51.350;6.708;2023-06-24T01:02:27;19.90;99.90
11666;DHT22;5889;51.350;6.708;2023-06-24T01:04:57;19.80;99.90
11666;DHT22;5889;51.350;6.708;2023-06-24T01:07:24;19.80;99.90
11666;DHT22;5889;51.350;6.708;2023-06-24T01:09:51;19.80;99.90
11666;DHT22;5889;51.350;6.708;2023-06-24T01:12:18;19.70;99.90
11666;DHT22;5889;51.350;6.708;2023-06-24T01:14:47;19.70;99.90
11666;DHT22;5889;51.350;6.708;2023-06-24T01:17:16;19.70;99.90
11666;DHT22;5889;51.350;6.708;2023-06-24T01:19:56;19.70;99.90
11666;DHT22;5889;51.350;6.708;2023-06-24T01:22:48;19.70;99.90
11666;DHT22;5889;51.350;6.708;2023-06-24T01:25:33;19.70;99.90
11666;DHT22;5889;51.350;6.708;2023-06-24T01:28:21;19.60;99.90
11666;DHT22;5889;51.350;6.708;2023-06-24T01:34:10;19.50;99.90
11666;DHT22;5889;51.350;6.708;2023-06-24T01:36:42;19.50;99.90
11666;DHT22;5889;51.350;6.708;2023-06-24T01:39:12;19.50;99.90
11666;DHT22;5889;51.350;6.708;2023-06-24T01:41:53;19.50;99.90
11666;DHT22;5889;51.350;6.708;2023-06-24T01:44:35;19.40;99.90
11666;DHT22;5889;51.350;6.708;2023-06-24T01:47:05;19.30;99.90
11666;DHT22;5889;51.350;6.708;2023-06-24T01:49:36;19.30;99.90
11666;DHT22;5889;51.350;6.708;2023-06-24T01:52:05;19.30;99.90
11666;DHT22;5889;51.350;6.708;2023-06-24T01:54:35;19.30;99.90
11666;DHT22;5889;51.350;6.708;2023-06-24T01:57:06;19.20;99.90
11666;DHT22;5889;51.350;6.708;2023-06-24T01:59:38;19.10;99.90
11666;DHT22;5889;51.350;6.708;2023-06-24T02:02:07;19.00;99.90
11666;DHT22;5889;51.350;6.708;2023-06-24T02:04:37;19.00;99.90
11666;DHT22;5889;51.350;6.708;2023-06-24T02:07:06;19.00;99.90
11666;DHT22;5889;51.350;6.708;2023-06-24T02:09:35;19.00;99.90
11666;DHT22;5889;51.350;6.708;2023-06-24T02:12:03;18.90;99.90
11666;DHT22;5889;51.350;6.708;2023-06-24T02:14:31;19.00;99.90
11666;DHT22;5889;51.350;6.708;2023-06-24T02:17:00;19.00;99.90
11666;DHT22;5889;51.350;6.708;2023-06-24T02:19:29;19.00;99.90
11666;DHT22;5889;51.350;6.708;2023-06-24T02:21:59;19.00;99.90
11666;DHT22;5889;51.350;6.708;2023-06-24T02:24:27;19.00;99.90
11666;DHT22;5889;51.350;6.708;2023-06-24T02:26:56;19.00;99.90
11666;DHT22;5889;51.350;6.708;2023-06-24T02:29:26;19.10;99.90
11666;DHT22;5889;51.350;6.708;2023-06-24T02:31:54;19.10;99.90
11666;DHT22;5889;51.350;6.708;2023-06-24T02:34:22;19.10;99.90
11666;DHT22;5889;51.350;6.708;2023-06-24T02:36:49;19.00;99.90
11666;DHT22;5889;51.350;6.708;2023-06-24T02:39:18;19.00;99.90
11666;DHT22;5889;51.350;6.708;2023-06-24T02:41:45;19.00;99.90
11666;DHT22;5889;51.350;6.708;2023-06-24T02:44:13;18.90;99.90
11666;DHT22;5889;51.350;6.708;2023-06-24T02:46:40;18.90;99.90
11666;DHT22;5889;51.350;6.708;2023-06-24T02:49:09;18.90;99.90
11666;DHT22;5889;51.350;6.708;2023-06-24T02:51:38;18.90;99.90
11666;DHT22;5889;51.350;6.708;2023-06-24T02:54:05;18.90;99.90
11666;DHT22;5889;51.350;6.708;2023-06-24T02:56:34;18.90;99.90
11666;DHT22;5889;51.350;6.708;2023-06-24T02:59:01;18.90;99.90
11666;DHT22;5889;51.350;6.708;2023-06-24T03:01:29;18.90;99.90
11666;DHT22;5889;51.350;6.708;2023-06-24T03:03:56;18.90;99.90
11666;DHT22;5889;51.350;6.708;2023-06-24T03:06:24;18.90;99.90
11666;DHT22;5889;51.350;6.708;2023-06-24T03:08:52;18.90;99.90
11666;DHT22;5889;51.350;6.708;2023-06-24T03:11:19;18.90;99.90
11666;DHT22;5889;51.350;6.708;2023-06-24T03:13:47;18.90;99.90
11666;DHT22;5889;51.350;6.708;2023-06-24T03:16:14;18.90;99.90
11666;DHT22;5889;51.350;6.708;2023-06-24T03:18:41;18.90;99.90
11666;DHT22;5889;51.350;6.708;2023-06-24T03:21:09;18.90;99.90
11666;DHT22;5889;51.350;6.708;2023-06-24T03:23:36;18.90;99.90
11666;DHT22;5889;51.350;6.708;2023-06-24T03:26:03;18.90;99.90
11666;DHT22;5889;51.350;6.708;2023-06-24T03:28:31;18.90;99.90
11666;DHT22;5889;51.350;6.708;2023-06-24T03:30:59;18.90;99.90
11666;DHT22;5889;51.350;6.708;2023-06-24T03:33:26;18.90;99.90
11666;DHT22;5889;51.350;6.708;2023-06-24T03:35:53;18.80;99.90
11666;DHT22;5889;51.350;6.708;2023-06-24T03:38:20;18.80;99.90
11666;DHT22;5889;51.350;6.708;2023-06-24T03:40:48;18.80;99.90
11666;DHT22;5889;51.350;6.708;2023-06-24T03:43:15;18.80;99.90
11666;DHT22;5889;51.350;6.708;2023-06-24T03:45:44;18.80;99.90
11666;DHT22;5889;51.350;6.708;2023-06-24T03:48:13;18.80;99.90
11666;DHT22;5889;51.350;6.708;2023-06-24T03:50:40;18.90;99.90
11666;DHT22;5889;51.350;6.708;2023-06-24T03:53:06;18.90;99.90
11666;DHT22;5889;51.350;6.708;2023-06-24T03:55:33;18.90;99.90
11666;DHT22;5889;51.350;6.708;2023-06-24T03:58:00;18.90;99.90
11666;DHT22;5889;51.350;6.708;2023-06-24T04:00:27;18.90;99.90
11666;DHT22;5889;51.350;6.708;2023-06-24T04:02:54;18.90;99.90
11666;DHT22;5889;51.350;6.708;2023-06-24T04:05:22;18.90;99.90
11666;DHT22;5889;51.350;6.708;2023-06-24T04:07:51;19.00;99.90
11666;DHT22;5889;51.350;6.708;2023-06-24T04:10:19;19.10;99.90
11666;DHT22;5889;51.350;6.708;2023-06-24T04:12:46;19.10;99.90
11666;DHT22;5889;51.350;6.708;2023-06-24T04:15:13;19.10;99.90
11666;DHT22;5889;51.350;6.708;2023-06-24T04:17:40;19.10;99.90
11666;DHT22;5889;51.350;6.708;2023-06-24T04:20:07;19.20;99.90
11666;DHT22;5889;51.350;6.708;2023-06-24T04:22:41;19.20;99.90
11666;DHT22;5889;51.350;6.708;2023-06-24T04:25:09;19.20;99.90
11666;DHT22;5889;51.350;6.708;2023-06-24T04:27:37;19.30;99.90
11666;DHT22;5889;51.350;6.708;2023-06-24T04:30:05;19.30;99.90
11666;DHT22;5889;51.350;6.708;2023-06-24T04:32:32;19.40;99.90
11666;DHT22;5889;51.350;6.708;2023-06-24T04:34:59;19.40;99.90
11666;DHT22;5889;51.350;6.708;2023-06-24T04:37:26;19.50;99.90
11666;DHT22;5889;51.350;6.708;2023-06-24T04:39:54;19.60;99.90
11666;DHT22;5889;51.350;6.708;2023-06-24T04:42:22;19.70;99.90
11666;DHT22;5889;51.350;6.708;2023-06-24T04:44:49;19.70;99.90
11666;DHT22;5889;51.350;6.708;2023-06-24T04:47:17;19.80;99.90
11666;DHT22;5889;51.350;6.708;2023-06-24T04:49:44;19.90;99.90
11666;DHT22;5889;51.350;6.708;2023-06-24T04:52:11;20.00;99.90
11666;DHT22;5889;51.350;6.708;2023-06-24T04:54:38;20.00;99.90
11666;DHT22;5889;51.350;6.708;2023-06-24T04:57:09;20.10;99.90
11666;DHT22;5889;51.350;6.708;2023-06-24T04:59:36;20.20;99.90
11666;DHT22;5889;51.350;6.708;2023-06-24T05:02:03;20.30;99.90
11666;DHT22;5889;51.350;6.708;2023-06-24T05:04:30;20.50;99.90
11666;DHT22;5889;51.350;6.708;2023-06-24T05:06:57;20.50;99.90
11666;DHT22;5889;51.350;6.708;2023-06-24T05:09:24;20.60;99.90
11666;DHT22;5889;51.350;6.708;2023-06-24T05:11:51;20.70;99.90
11666;DHT22;5889;51.350;6.708;2023-06-24T05:14:19;20.80;99.90
11666;DHT22;5889;51.350;6.708;2023-06-24T05:16:46;20.90;99.90
11666;DHT22;5889;51.350;6.708;2023-06-24T05:19:13;21.10;99.90
11666;DHT22;5889;51.350;6.708;2023-06-24T05:21:41;21.10;99.90
11666;DHT22;5889;51.350;6.708;2023-06-24T05:24:08;21.20;99.90
11666;DHT22;5889;51.350;6.708;2023-06-24T05:26:35;21.30;99.90
11666;DHT22;5889;51.350;6.708;2023-06-24T05:29:02;21.40;99.90
11666;DHT22;5889;51.350;6.708;2023-06-24T05:31:31;21.40;99.90
11666;DHT22;5889;51.350;6.708;2023-06-24T05:33:58;21.40;99.90
11666;DHT22;5889;51.350;6.708;2023-06-24T05:36:26;21.40;99.90
11666;DHT22;5889;51.350;6.708;2023-06-24T05:38:53;21.30;99.90
11666;DHT22;5889;51.350;6.708;2023-06-24T05:41:20;21.30;99.90
11666;DHT22;5889;51.350;6.708;2023-06-24T05:43:48;21.40;99.90
11666;DHT22;5889;51.350;6.708;2023-06-24T05:46:15;21.40;99.90
11666;DHT22;5889;51.350;6.708;2023-06-24T05:48:43;21.40;99.90
11666;DHT22;5889;51.350;6.708;2023-06-24T05:51:10;21.30;99.90
11666;DHT22;5889;51.350;6.708;2023-06-24T05:53:37;21.30;99.90
11666;DHT22;5889;51.350;6.708;2023-06-24T05:56:04;21.30;99.90
11666;DHT22;5889;51.350;6.708;2023-06-24T05:58:31;21.30;99.90
11666;DHT22;5889;51.350;6.708;2023-06-24T06:00:58;21.40;99.90
11666;DHT22;5889;51.350;6.708;2023-06-24T06:03:26;21.40;99.90
11666;DHT22;5889;51.350;6.708;2023-06-24T06:05:55;21.50;99.90
11666;DHT22;5889;51.350;6.708;2023-06-24T06:08:23;21.40;99.90
11666;DHT22;5889;51.350;6.708;2023-06-24T06:10:51;21.40;99.90
11666;DHT22;5889;51.350;6.708;2023-06-24T06:13:19;21.60;99.90
11666;DHT22;5889;51.350;6.708;2023-06-24T06:15:45;21.70;99.90
11666;DHT22;5889;51.350;6.708;2023-06-24T06:18:12;21.90;99.90
11666;DHT22;5889;51.350;6.708;2023-06-24T06:20:40;22.00;99.90
11666;DHT22;5889;51.350;6.708;2023-06-24T06:23:08;22.20;99.90
11666;DHT22;5889;51.350;6.708;2023-06-24T06:25:35;22.40;99.90
11666;DHT22;5889;51.350;6.708;2023-06-24T06:28:04;22.50;99.90
11666;DHT22;5889;51.350;6.708;2023-06-24T06:30:31;22.60;99.90
11666;DHT22;5889;51.350;6.708;2023-06-24T06:32:58;22.60;99.90
11666;DHT22;5889;51.350;6.708;2023-06-24T06:35:25;22.50;99.90
11666;DHT22;5889;51.350;6.708;2023-06-24T06:37:51;22.40;99.90
11666;DHT22;5889;51.350;6.708;2023-06-24T06:40:21;22.50;99.90
11666;DHT22;5889;51.350;6.708;2023-06-24T06:42:48;22.50;99.90
11666;DHT22;5889;51.350;6.708;2023-06-24T06:45:16;22.60;99.90
11666;DHT22;5889;51.350;6.708;2023-06-24T06:47:42;22.50;99.90
11666;DHT22;5889;51.350;6.708;2023-06-24T06:50:10;22.60;99.90
11666;DHT22;5889;51.350;6.708;2023-06-24T06:52:40;22.70;99.90
11666;DHT22;5889;51.350;6.708;2023-06-24T06:55:07;22.90;99.90
11666;DHT22;5889;51.350;6.708;2023-06-24T06:57:36;23.00;99.90
11666;DHT22;5889;51.350;6.708;2023-06-24T07:00:03;23.30;99.90
11666;DHT22;5889;51.350;6.708;2023-06-24T07:02:30;23.50;99.90
11666;DHT22;5889;51.350;6.708;2023-06-24T07:04:57;23.70;99.90
11666;DHT22;5889;51.350;6.708;2023-06-24T07:07:24;23.90;99.90
11666;DHT22;5889;51.350;6.708;2023-06-24T07:09:51;23.90;99.90
11666;DHT22;5889;51.350;6.708;2023-06-24T07:12:18;23.80;99.90
11666;DHT22;5889;51.350;6.708;2023-06-24T07:14:48;23.80;99.90
11666;DHT22;5889;51.350;6.708;2023-06-24T07:17:14;23.80;99.90
11666;DHT22;5889;51.350;6.708;2023-06-24T07:19:44;23.90;99.90
11666;DHT22;5889;51.350;6.708;2023-06-24T07:22:11;24.00;99.90
11666;DHT22;5889;51.350;6.708;2023-06-24T07:24:38;24.20;99.90
11666;DHT22;5889;51.350;6.708;2023-06-24T07:27:06;24.20;99.90
11666;DHT22;5889;51.350;6.708;2023-06-24T07:29:33;24.20;99.90
11666;DHT22;5889;51.350;6.708;2023-06-24T07:32:01;24.40;99.90
11666;DHT22;5889;51.350;6.708;2023-06-24T07:34:29;24.60;99.90
11666;DHT22;5889;51.350;6.708;2023-06-24T07:36:56;24.80;99.90
11666;DHT22;5889;51.350;6.708;2023-06-24T07:39:23;25.00;99.90
11666;DHT22;5889;51.350;6.708;2023-06-24T07:41:50;25.10;99.90
11666;DHT22;5889;51.350;6.708;2023-06-24T07:44:17;25.30;99.90
11666;DHT22;5889;51.350;6.708;2023-06-24T07:46:44;25.50;99.90
11666;DHT22;5889;51.350;6.708;2023-06-24T07:49:13;25.60;99.90
11666;DHT22;5889;51.350;6.708;2023-06-24T07:51:39;25.80;99.80
11666;DHT22;5889;51.350;6.708;2023-06-24T07:54:06;26.10;99.20
11666;DHT22;5889;51.350;6.708;2023-06-24T07:56:33;26.30;97.90
11666;DHT22;5889;51.350;6.708;2023-06-24T07:59:00;26.40;97.40
11666;DHT22;5889;51.350;6.708;2023-06-24T08:01:27;26.40;97.00
11666;DHT22;5889;51.350;6.708;2023-06-24T08:03:54;26.50;97.40
11666;DHT22;5889;51.350;6.708;2023-06-24T08:06:22;26.60;96.20
11666;DHT22;5889;51.350;6.708;2023-06-24T08:08:50;26.80;96.20
11666;DHT22;5889;51.350;6.708;2023-06-24T08:11:16;26.90;95.30
11666;DHT22;5889;51.350;6.708;2023-06-24T08:13:43;26.60;94.00
11666;DHT22;5889;51.350;6.708;2023-06-24T08:16:10;26.30;94.10
11666;DHT22;5889;51.350;6.708;2023-06-24T08:18:37;26.20;94.80
11666;DHT22;5889;51.350;6.708;2023-06-24T08:21:05;26.30;94.50
11666;DHT22;5889;51.350;6.708;2023-06-24T08:23:33;26.50;95.20
11666;DHT22;5889;51.350;6.708;2023-06-24T08:26:00;26.80;95.30
11666;DHT22;5889;51.350;6.708;2023-06-24T08:28:27;27.10;95.00
11666;DHT22;5889;51.350;6.708;2023-06-24T08:30:54;27.40;93.50
11666;DHT22;5889;51.350;6.708;2023-06-24T08:33:21;27.40;92.90
11666;DHT22;5889;51.350;6.708;2023-06-24T08:35:47;27.40;92.50
11666;DHT22;5889;51.350;6.708;2023-06-24T08:38:14;27.40;92.40
11666;DHT22;5889;51.350;6.708;2023-06-24T08:40:44;27.50;92.60
11666;DHT22;5889;51.350;6.708;2023-06-24T08:43:13;27.70;92.90
11666;DHT22;5889;51.350;6.708;2023-06-24T08:45:40;27.70;92.20
11666;DHT22;5889;51.350;6.708;2023-06-24T08:48:07;27.80;92.30
11666;DHT22;5889;51.350;6.708;2023-06-24T08:50:36;27.90;92.10
11666;DHT22;5889;51.350;6.708;2023-06-24T08:53:07;28.00;92.40
11666;DHT22;5889;51.350;6.708;2023-06-24T08:55:40;28.00;91.40
11666;DHT22;5889;51.350;6.708;2023-06-24T08:58:10;27.90;92.30
11666;DHT22;5889;51.350;6.708;2023-06-24T09:00:37;28.10;92.00
11666;DHT22;5889;51.350;6.708;2023-06-24T09:03:04;28.20;92.30
11666;DHT22;5889;51.350;6.708;2023-06-24T09:05:34;28.40;91.40
11666;DHT22;5889;51.350;6.708;2023-06-24T09:08:00;28.50;91.30
11666;DHT22;5889;51.350;6.708;2023-06-24T09:10:32;28.60;90.60
11666;DHT22;5889;51.350;6.708;2023-06-24T09:12:59;28.60;91.40
11666;DHT22;5889;51.350;6.708;2023-06-24T09:15:31;28.80;91.50
11666;DHT22;5889;51.350;6.708;2023-06-24T09:17:58;28.90;90.90
11666;DHT22;5889;51.350;6.708;2023-06-24T09:20:26;28.80;91.00
11666;DHT22;5889;51.350;6.708;2023-06-24T09:22:58;28.90;90.90
11666;DHT22;5889;51.350;6.708;2023-06-24T09:25:25;28.90;91.40
11666;DHT22;5889;51.350;6.708;2023-06-24T09:27:52;29.20;90.20
11666;DHT22;5889;51.350;6.708;2023-06-24T09:30:22;29.20;89.90
11666;DHT22;5889;51.350;6.708;2023-06-24T09:32:51;29.20;89.30
11666;DHT22;5889;51.350;6.708;2023-06-24T09:35:19;29.20;88.80
11666;DHT22;5889;51.350;6.708;2023-06-24T09:37:50;29.30;88.50
11666;DHT22;5889;51.350;6.708;2023-06-24T09:40:17;29.40;88.40
11666;DHT22;5889;51.350;6.708;2023-06-24T09:42:49;29.60;88.80
11666;DHT22;5889;51.350;6.708;2023-06-24T09:45:20;29.60;88.70
11666;DHT22;5889;51.350;6.708;2023-06-24T09:47:47;29.60;88.70
11666;DHT22;5889;51.350;6.708;2023-06-24T09:50:16;29.60;84.80
11666;DHT22;5889;51.350;6.708;2023-06-24T09:52:44;29.60;82.90
11666;DHT22;5889;51.350;6.708;2023-06-24T09:55:13;29.50;82.50
11666;DHT22;5889;51.350;6.708;2023-06-24T09:57:42;29.60;81.90
11666;DHT22;5889;51.350;6.708;2023-06-24T10:00:12;29.60;81.50
11666;DHT22;5889;51.350;6.708;2023-06-24T10:02:41;29.60;80.80
11666;DHT22;5889;51.350;6.708;2023-06-24T10:05:09;29.50;81.70
11666;DHT22;5889;51.350;6.708;2023-06-24T10:07:39;29.50;80.20
11666;DHT22;5889;51.350;6.708;2023-06-24T10:10:07;29.50;78.80
11666;DHT22;5889;51.350;6.708;2023-06-24T10:12:35;29.60;79.50
11666;DHT22;5889;51.350;6.708;2023-06-24T10:15:03;29.70;82.00
11666;DHT22;5889;51.350;6.708;2023-06-24T10:17:30;29.70;80.60
11666;DHT22;5889;51.350;6.708;2023-06-24T10:19:57;29.70;81.50
11666;DHT22;5889;51.350;6.708;2023-06-24T10:22:24;29.60;81.60
11666;DHT22;5889;51.350;6.708;2023-06-24T10:24:53;29.30;81.70
11666;DHT22;5889;51.350;6.708;2023-06-24T10:27:21;29.20;81.80
11666;DHT22;5889;51.350;6.708;2023-06-24T10:29:49;29.40;81.80
11666;DHT22;5889;51.350;6.708;2023-06-24T10:32:17;29.70;81.30
11666;DHT22;5889;51.350;6.708;2023-06-24T10:34:46;29.90;79.10
11666;DHT22;5889;51.350;6.708;2023-06-24T10:37:17;30.10;79.60
11666;DHT22;5889;51.350;6.708;2023-06-24T10:39:50;30.50;79.90
11666;DHT22;5889;51.350;6.708;2023-06-24T10:42:38;30.90;77.80
11666;DHT22;5889;51.350;6.708;2023-06-24T10:45:15;30.90;77.00
11666;DHT22;5889;51.350;6.708;2023-06-24T10:47:43;30.50;78.30
11666;DHT22;5889;51.350;6.708;2023-06-24T10:50:11;30.20;78.70
11666;DHT22;5889;51.350;6.708;2023-06-24T10:52:39;30.30;79.60
11666;DHT22;5889;51.350;6.708;2023-06-24T10:55:07;30.30;82.00
11666;DHT22;5889;51.350;6.708;2023-06-24T10:57:36;30.10;81.90
11666;DHT22;5889;51.350;6.708;2023-06-24T11:00:04;30.40;81.40
11666;DHT22;5889;51.350;6.708;2023-06-24T11:02:31;30.60;78.20
11666;DHT22;5889;51.350;6.708;2023-06-24T11:04:59;30.60;78.10
11666;DHT22;5889;51.350;6.708;2023-06-24T11:07:28;30.60;78.30
11666;DHT22;5889;51.350;6.708;2023-06-24T11:09:56;30.90;79.30
11666;DHT22;5889;51.350;6.708;2023-06-24T11:12:25;31.00;79.00
11666;DHT22;5889;51.350;6.708;2023-06-24T11:14:55;31.20;78.30
11666;DHT22;5889;51.350;6.708;2023-06-24T11:17:23;31.20;75.60
11666;DHT22;5889;51.350;6.708;2023-06-24T11:19:52;31.20;77.00
11666;DHT22;5889;51.350;6.708;2023-06-24T11:22:19;31.30;75.60
11666;DHT22;5889;51.350;6.708;2023-06-24T11:24:46;31.40;75.20
11666;DHT22;5889;51.350;6.708;2023-06-24T11:27:13;31.40;74.70
11666;DHT22;5889;51.350;6.708;2023-06-24T11:29:40;31.50;74.80
11666;DHT22;5889;51.350;6.708;2023-06-24T11:32:09;31.50;75.20
11666;DHT22;5889;51.350;6.708;2023-06-24T11:34:37;31.70;75.40
11666;DHT22;5889;51.350;6.708;2023-06-24T11:37:11;31.90;75.30
11666;DHT22;5889;51.350;6.708;2023-06-24T11:39:38;32.00;73.70
11666;DHT22;5889;51.350;6.708;2023-06-24T11:42:07;32.10;73.60
11666;DHT22;5889;51.350;6.708;2023-06-24T11:44:34;32.20;73.50
11666;DHT22;5889;51.350;6.708;2023-06-24T11:47:05;32.50;73.50
11666;DHT22;5889;51.350;6.708;2023-06-24T11:49:48;32.60;72.40
11666;DHT22;5889;51.350;6.708;2023-06-24T11:52:15;32.60;69.90
11666;DHT22;5889;51.350;6.708;2023-06-24T11:54:42;32.50;69.50
11666;DHT22;5889;51.350;6.708;2023-06-24T11:57:09;32.30;66.20
11666;DHT22;5889;51.350;6.708;2023-06-24T11:59:38;32.00;63.30
11666;DHT22;5889;51.350;6.708;2023-06-24T12:02:05;31.90;63.70
11666;DHT22;5889;51.350;6.708;2023-06-24T12:04:34;31.90;62.80
11666;DHT22;5889;51.350;6.708;2023-06-24T12:07:03;32.00;64.00
11666;DHT22;5889;51.350;6.708;2023-06-24T12:09:30;32.20;63.90
11666;DHT22;5889;51.350;6.708;2023-06-24T12:11:57;32.20;62.70
11666;DHT22;5889;51.350;6.708;2023-06-24T12:14:24;32.20;62.20
11666;DHT22;5889;51.350;6.708;2023-06-24T12:16:51;32.40;62.50
11666;DHT22;5889;51.350;6.708;2023-06-24T12:19:17;32.60;62.90
11666;DHT22;5889;51.350;6.708;2023-06-24T12:21:47;32.80;63.10
11666;DHT22;5889;51.350;6.708;2023-06-24T12:24:14;32.80;63.10
11666;DHT22;5889;51.350;6.708;2023-06-24T12:26:41;32.80;62.00
11666;DHT22;5889;51.350;6.708;2023-06-24T12:29:08;32.80;60.50
11666;DHT22;5889;51.350;6.708;2023-06-24T12:31:35;32.80;60.70
11666;DHT22;5889;51.350;6.708;2023-06-24T12:34:02;33.00;61.00
11666;DHT22;5889;51.350;6.708;2023-06-24T12:36:31;32.90;61.60
11666;DHT22;5889;51.350;6.708;2023-06-24T12:38:59;32.70;60.80
11666;DHT22;5889;51.350;6.708;2023-06-24T12:41:26;32.50;61.70
11666;DHT22;5889;51.350;6.708;2023-06-24T12:43:54;32.60;62.00
11666;DHT22;5889;51.350;6.708;2023-06-24T12:46:24;32.70;60.50
11666;DHT22;5889;51.350;6.708;2023-06-24T12:48:51;32.70;60.50
11666;DHT22;5889;51.350;6.708;2023-06-24T12:51:18;32.70;59.40
11666;DHT22;5889;51.350;6.708;2023-06-24T12:53:45;32.40;60.40
11666;DHT22;5889;51.350;6.708;2023-06-24T12:56:14;32.20;59.40
11666;DHT22;5889;51.350;6.708;2023-06-24T12:58:41;32.30;59.80
11666;DHT22;5889;51.350;6.708;2023-06-24T13:01:07;32.40;59.20
11666;DHT22;5889;51.350;6.708;2023-06-24T13:03:34;32.30;60.00
11666;DHT22;5889;51.350;6.708;2023-06-24T13:06:01;32.10;60.70
11666;DHT22;5889;51.350;6.708;2023-06-24T13:08:28;31.60;58.90
11666;DHT22;5889;51.350;6.708;2023-06-24T13:10:56;31.20;59.30
11666;DHT22;5889;51.350;6.708;2023-06-24T13:13:24;31.10;59.50
11666;DHT22;5889;51.350;6.708;2023-06-24T13:15:51;31.00;59.80
11666;DHT22;5889;51.350;6.708;2023-06-24T13:18:18;31.20;57.80
11666;DHT22;5889;51.350;6.708;2023-06-24T13:20:45;31.60;57.70
11666;DHT22;5889;51.350;6.708;2023-06-24T13:23:12;31.90;57.40
11666;DHT22;5889;51.350;6.708;2023-06-24T13:25:39;32.00;57.90
11666;DHT22;5889;51.350;6.708;2023-06-24T13:28:06;32.00;56.80
11666;DHT22;5889;51.350;6.708;2023-06-24T13:30:34;31.70;57.50
11666;DHT22;5889;51.350;6.708;2023-06-24T13:33:01;31.60;57.60
11666;DHT22;5889;51.350;6.708;2023-06-24T13:35:28;31.80;57.70
11666;DHT22;5889;51.350;6.708;2023-06-24T13:37:55;32.10;57.30
11666;DHT22;5889;51.350;6.708;2023-06-24T13:40:23;32.20;57.10
11666;DHT22;5889;51.350;6.708;2023-06-24T13:42:50;31.80;58.80
11666;DHT22;5889;51.350;6.708;2023-06-24T13:45:17;31.40;60.00
11666;DHT22;5889;51.350;6.708;2023-06-24T13:47:46;31.30;59.30
11666;DHT22;5889;51.350;6.708;2023-06-24T13:50:13;31.50;58.90
11666;DHT22;5889;51.350;6.708;2023-06-24T13:52:40;31.70;59.10
11666;DHT22;5889;51.350;6.708;2023-06-24T13:55:07;31.70;58.70
11666;DHT22;5889;51.350;6.708;2023-06-24T13:57:34;31.60;59.30
11666;DHT22;5889;51.350;6.708;2023-06-24T14:00:01;31.70;60.50
11666;DHT22;5889;51.350;6.708;2023-06-24T14:02:29;31.90;58.40
11666;DHT22;5889;51.350;6.708;2023-06-24T14:04:57;31.80;61.10
11666;DHT22;5889;51.350;6.708;2023-06-24T14:07:24;31.30;61.70
11666;DHT22;5889;51.350;6.708;2023-06-24T14:09:54;30.70;61.80
11666;DHT22;5889;51.350;6.708;2023-06-24T14:12:21;30.50;63.50
11666;DHT22;5889;51.350;6.708;2023-06-24T14:14:48;30.30;59.00
11666;DHT22;5889;51.350;6.708;2023-06-24T14:17:15;30.30;59.30
11666;DHT22;5889;51.350;6.708;2023-06-24T14:19:42;30.70;59.10
11666;DHT22;5889;51.350;6.708;2023-06-24T14:22:10;31.40;59.20
11666;DHT22;5889;51.350;6.708;2023-06-24T14:24:38;31.90;57.90
11666;DHT22;5889;51.350;6.708;2023-06-24T14:27:05;32.30;57.40
11666;DHT22;5889;51.350;6.708;2023-06-24T14:29:32;32.30;59.10
11666;DHT22;5889;51.350;6.708;2023-06-24T14:31:59;31.90;59.50
11666;DHT22;5889;51.350;6.708;2023-06-24T14:34:26;31.60;57.40
11666;DHT22;5889;51.350;6.708;2023-06-24T14:36:55;31.60;57.80
11666;DHT22;5889;51.350;6.708;2023-06-24T14:39:23;31.70;57.70
11666;DHT22;5889;51.350;6.708;2023-06-24T14:41:50;31.90;58.10
11666;DHT22;5889;51.350;6.708;2023-06-24T14:44:17;31.90;57.60
11666;DHT22;5889;51.350;6.708;2023-06-24T14:46:44;31.90;57.60
11666;DHT22;5889;51.350;6.708;2023-06-24T14:49:11;31.80;57.00
11666;DHT22;5889;51.350;6.708;2023-06-24T14:51:38;32.00;57.70
11666;DHT22;5889;51.350;6.708;2023-06-24T14:54:05;32.00;59.00
11666;DHT22;5889;51.350;6.708;2023-06-24T14:56:33;32.00;58.20
11666;DHT22;5889;51.350;6.708;2023-06-24T14:59:00;31.80;57.80
11666;DHT22;5889;51.350;6.708;2023-06-24T15:01:27;31.80;56.00
11666;DHT22;5889;51.350;6.708;2023-06-24T15:03:54;32.00;59.00
11666;DHT22;5889;51.350;6.708;2023-06-24T15:06:22;31.70;58.20
11666;DHT22;5889;51.350;6.708;2023-06-24T15:08:49;31.70;56.70
11666;DHT22;5889;51.350;6.708;2023-06-24T15:11:15;31.80;57.30
11666;DHT22;5889;51.350;6.708;2023-06-24T15:13:44;32.10;57.00
11666;DHT22;5889;51.350;6.708;2023-06-24T15:16:11;32.50;57.70
11666;DHT22;5889;51.350;6.708;2023-06-24T15:18:44;32.60;55.30
11666;DHT22;5889;51.350;6.708;2023-06-24T15:21:12;32.60;56.40
11666;DHT22;5889;51.350;6.708;2023-06-24T15:23:39;32.30;58.00
11666;DHT22;5889;51.350;6.708;2023-06-24T15:26:06;32.30;54.60
11666;DHT22;5889;51.350;6.708;2023-06-24T15:28:33;32.60;54.60
11666;DHT22;5889;51.350;6.708;2023-06-24T15:31:03;32.70;54.30
11666;DHT22;5889;51.350;6.708;2023-06-24T15:33:30;32.90;54.90
11666;DHT22;5889;51.350;6.708;2023-06-24T15:35:57;33.20;54.40
11666;DHT22;5889;51.350;6.708;2023-06-24T15:38:25;33.10;54.10
11666;DHT22;5889;51.350;6.708;2023-06-24T15:40:52;32.90;54.00
11666;DHT22;5889;51.350;6.708;2023-06-24T15:43:19;32.80;53.00
11666;DHT22;5889;51.350;6.708;2023-06-24T15:45:46;32.90;52.90
11666;DHT22;5889;51.350;6.708;2023-06-24T15:48:15;33.30;53.80
11666;DHT22;5889;51.350;6.708;2023-06-24T15:50:42;33.50;54.20
11666;DHT22;5889;51.350;6.708;2023-06-24T15:53:10;33.70;53.10